Time;durP1;ratioP1;P1;durP2;ratioP2;P2;SDS_P1;SDS_P2;PMS_P1;PMS_P2;Temp;Humidity;BMP_temperature;BMP_pressure;BME280_temperature;BME280_humidity;BME280_pressure;Samples;Min_cycle;Max_cycle;Signal;HPM_P1;HPM_P2
2021/11/11 00:03:30;;;;;;;;;;;0.80;99.90;;;;;;8327260;28;19912;-65
2021/11/11 00:07:32;;;;;;;;;;;0.80;99.90;;;;;;8328048;28;20003;-65
2021/11/11 00:11:33;;;;;;;;;;;1.00;99.90;;;;;;8328503;28;19905;-64
2021/11/11 00:15:34;;;;;;;;;;;1.10;99.90;;;;;;8328604;28;19913;-64
2021/11/11 00:19:34;;;;;;;;;;;1.00;99.90;;;;;;8310232;28;19908;-65
2021/11/11 00:23:35;;;;;;;;;;;1.10;99.90;;;;;;8343226;28;19984;-64
2021/11/11 00:27:35;;;;;;;;;;;1.10;99.90;;;;;;8327898;28;19959;-65
2021/11/11 00:31:35;;;;;;;;;;;1.00;99.90;;;;;;8327992;28;19912;-64
2021/11/11 00:35:37;;;;;;;;;;;0.90;99.90;;;;;;8327157;28;19905;-64
2021/11/11 00:39:37;;;;;;;;;;;0.90;99.90;;;;;;8327511;28;19920;-64
2021/11/11 00:43:38;;;;;;;;;;;0.90;99.90;;;;;;8327904;28;19928;-64
2021/11/11 00:47:39;;;;;;;;;;;1.00;99.90;;;;;;8327794;28;19905;-65
2021/11/11 00:51:40;;;;;;;;;;;1.20;99.90;;;;;;8327639;28;19905;-64
2021/11/11 00:55:40;;;;;;;;;;;1.10;99.90;;;;;;8327637;28;19963;-65
2021/11/11 00:59:42;;;;;;;;;;;1.00;99.90;;;;;;8326565;28;19913;-64
2021/11/11 01:03:42;;;;;;;;;;;1.10;99.90;;;;;;8327653;28;20440;-64
2021/11/11 01:07:43;;;;;;;;;;;1.20;99.90;;;;;;8327323;28;19905;-64
2021/11/11 01:11:44;;;;;;;;;;;1.30;99.90;;;;;;8327087;28;19912;-64
2021/11/11 01:15:44;;;;;;;;;;;1.30;99.90;;;;;;8327512;28;19909;-65
2021/11/11 01:19:45;;;;;;;;;;;1.10;99.90;;;;;;8308954;28;20023;-64
2021/11/11 01:23:45;;;;;;;;;;;1.10;99.90;;;;;;8327073;28;19958;-64
2021/11/11 01:27:46;;;;;;;;;;;0.80;99.90;;;;;;8326827;28;19912;-65
2021/11/11 01:31:47;;;;;;;;;;;0.70;99.90;;;;;;8309072;28;19905;-64
2021/11/11 01:35:48;;;;;;;;;;;0.70;99.90;;;;;;8309204;28;19909;-65
2021/11/11 01:39:49;;;;;;;;;;;0.60;99.90;;;;;;8311746;28;20424;-65
2021/11/11 01:43:49;;;;;;;;;;;1.00;99.90;;;;;;8333177;28;19920;-65
2021/11/11 01:47:49;;;;;;;;;;;0.90;99.90;;;;;;8333212;28;20328;-65
2021/11/11 01:51:50;;;;;;;;;;;0.90;99.90;;;;;;8332755;28;20292;-64
2021/11/11 01:55:51;;;;;;;;;;;0.80;99.90;;;;;;8333165;28;20379;-64
2021/11/11 01:59:52;;;;;;;;;;;0.80;99.90;;;;;;8314658;28;20288;-65
2021/11/11 02:03:53;;;;;;;;;;;0.80;99.90;;;;;;8332690;28;19919;-65
2021/11/11 02:07:54;;;;;;;;;;;0.80;99.90;;;;;;8332518;28;19933;-65
2021/11/11 02:11:55;;;;;;;;;;;0.70;99.90;;;;;;8314345;28;19909;-65
2021/11/11 02:15:55;;;;;;;;;;;0.60;99.90;;;;;;8332578;28;19905;-65
2021/11/11 02:19:57;;;;;;;;;;;0.70;99.90;;;;;;8331826;28;19909;-65
2021/11/11 02:23:58;;;;;;;;;;;0.60;99.90;;;;;;8331974;28;19912;-64
2021/11/11 02:28:00;;;;;;;;;;;0.70;99.90;;;;;;8331783;28;19905;-65
2021/11/11 02:32:01;;;;;;;;;;;0.80;99.90;;;;;;8331855;28;19909;-64
2021/11/11 02:36:01;;;;;;;;;;;1.00;99.90;;;;;;8331729;28;19999;-64
2021/11/11 02:40:10;;;;;;;;;;;1.00;99.90;;;;;;8331177;28;20392;-64
2021/11/11 02:44:11;;;;;;;;;;;0.90;99.90;;;;;;8331416;28;19991;-65
2021/11/11 02:48:12;;;;;;;;;;;0.80;99.90;;;;;;8331240;28;19951;-64
2021/11/11 02:52:13;;;;;;;;;;;1.00;99.90;;;;;;8311984;28;19948;-64
2021/11/11 02:56:14;;;;;;;;;;;1.20;99.90;;;;;;8330959;28;19978;-65
2021/11/11 03:00:19;;;;;;;;;;;1.00;99.90;;;;;;8330617;28;20388;-64
2021/11/11 03:04:19;;;;;;;;;;;0.90;99.90;;;;;;8312993;28;20373;-64
2021/11/11 03:08:20;;;;;;;;;;;1.00;99.90;;;;;;8330533;28;19967;-64
2021/11/11 03:12:22;;;;;;;;;;;1.00;99.90;;;;;;8312483;28;19909;-64
2021/11/11 03:16:22;;;;;;;;;;;1.10;99.90;;;;;;8330284;28;19992;-64
2021/11/11 03:20:23;;;;;;;;;;;0.80;99.90;;;;;;8329950;28;19916;-64
2021/11/11 03:24:23;;;;;;;;;;;1.00;99.90;;;;;;8330069;28;19908;-64
2021/11/11 03:28:25;;;;;;;;;;;0.90;99.90;;;;;;8311609;28;20337;-64
2021/11/11 03:32:26;;;;;;;;;;;0.70;99.90;;;;;;8329580;28;20374;-64
2021/11/11 03:36:26;;;;;;;;;;;0.90;99.90;;;;;;8329667;28;19916;-64
2021/11/11 03:40:28;;;;;;;;;;;0.80;99.90;;;;;;8381103;22;19924;-63
2021/11/11 03:44:29;;;;;;;;;;;0.70;99.90;;;;;;8428790;28;20351;-64
2021/11/11 03:48:29;;;;;;;;;;;0.40;99.90;;;;;;8428763;28;20008;-64
2021/11/11 03:52:30;;;;;;;;;;;0.60;99.90;;;;;;8428585;28;19908;-64
2021/11/11 03:56:30;;;;;;;;;;;0.70;99.90;;;;;;8428556;28;19908;-64
2021/11/11 04:00:31;;;;;;;;;;;0.60;99.90;;;;;;8428401;28;19931;-64
2021/11/11 04:04:32;;;;;;;;;;;0.40;99.90;;;;;;8428011;28;19904;-64
2021/11/11 04:08:33;;;;;;;;;;;0.40;99.90;;;;;;8428105;28;20447;-64
2021/11/11 04:12:33;;;;;;;;;;;0.50;99.90;;;;;;8410049;28;19965;-64
2021/11/11 04:16:34;;;;;;;;;;;0.60;99.90;;;;;;8428181;28;19930;-64
2021/11/11 04:20:34;;;;;;;;;;;0.60;99.90;;;;;;8427714;28;20383;-64
2021/11/11 04:24:35;;;;;;;;;;;1.00;99.90;;;;;;8427700;28;20360;-64
2021/11/11 04:29:01;;;;;;;;;;;0.70;99.90;;;;;;8397717;28;19908;-64
2021/11/11 04:32:58;;;;;;;;;;;0.60;99.90;;;;;;8393358;28;19999;-64
2021/11/11 04:49:42;;;;;;;;;;;0.90;99.90;;;;;;8406861;28;19904;-64
2021/11/11 05:02:53;;;;;;;;;;;0.80;99.90;;;;;;8410685;28;20036;-64
2021/11/11 05:06:54;;;;;;;;;;;0.80;99.90;;;;;;8390122;28;20379;-64
2021/11/11 05:10:56;;;;;;;;;;;0.90;99.90;;;;;;8411085;28;19908;-64
2021/11/11 05:14:56;;;;;;;;;;;0.80;99.90;;;;;;8394158;28;19908;-64
2021/11/11 05:18:57;;;;;;;;;;;0.60;99.90;;;;;;8422330;28;19947;-64
2021/11/11 05:22:57;;;;;;;;;;;0.50;99.90;;;;;;8432737;28;19908;-64
2021/11/11 05:27:04;;;;;;;;;;;0.80;99.90;;;;;;8400923;28;19908;-64
2021/11/11 05:31:04;;;;;;;;;;;0.80;99.90;;;;;;8427174;28;19919;-64
2021/11/11 05:35:07;;;;;;;;;;;0.70;99.90;;;;;;8423251;28;19908;-64
2021/11/11 05:39:07;;;;;;;;;;;0.80;99.90;;;;;;8431865;28;19912;-64
2021/11/11 05:43:08;;;;;;;;;;;0.70;99.90;;;;;;8418935;28;20319;-64
2021/11/11 05:47:08;;;;;;;;;;;0.60;99.90;;;;;;8394104;28;19935;-64
2021/11/11 05:51:09;;;;;;;;;;;0.60;99.90;;;;;;8415199;28;20390;-64
2021/11/11 05:55:09;;;;;;;;;;;0.70;99.90;;;;;;8409828;28;19943;-64
2021/11/11 05:59:10;;;;;;;;;;;0.70;99.90;;;;;;8418590;28;19916;-64
2021/11/11 06:03:10;;;;;;;;;;;0.70;99.90;;;;;;8395669;28;19904;-64
2021/11/11 06:07:11;;;;;;;;;;;0.80;99.90;;;;;;8397876;28;19958;-64
2021/11/11 06:11:11;;;;;;;;;;;0.60;99.90;;;;;;8398387;28;19982;-64
2021/11/11 06:15:12;;;;;;;;;;;0.80;99.90;;;;;;8380492;28;19905;-64
2021/11/11 06:19:12;;;;;;;;;;;0.70;99.90;;;;;;8380214;28;19999;-64
2021/11/11 06:23:13;;;;;;;;;;;0.70;99.90;;;;;;8397761;28;19904;-64
2021/11/11 06:27:14;;;;;;;;;;;0.70;99.90;;;;;;8397717;28;19994;-64
2021/11/11 06:31:15;;;;;;;;;;;0.70;99.90;;;;;;8379384;28;19952;-64
2021/11/11 06:35:15;;;;;;;;;;;0.60;99.90;;;;;;8397869;28;19904;-64
2021/11/11 06:39:16;;;;;;;;;;;0.80;99.90;;;;;;8397478;28;19995;-64
2021/11/11 06:43:16;;;;;;;;;;;0.90;99.90;;;;;;8397333;28;19912;-64
2021/11/11 06:47:16;;;;;;;;;;;0.90;99.90;;;;;;8397365;28;19905;-64
2021/11/11 06:51:17;;;;;;;;;;;1.10;99.90;;;;;;8379473;28;19971;-64
2021/11/11 06:55:18;;;;;;;;;;;1.10;99.90;;;;;;8397178;28;20288;-64
2021/11/11 06:59:18;;;;;;;;;;;1.10;99.90;;;;;;8421472;28;19908;-64
2021/11/11 07:03:19;;;;;;;;;;;1.10;99.90;;;;;;8430419;28;19911;-64
2021/11/11 07:07:19;;;;;;;;;;;0.90;99.90;;;;;;8430114;28;19904;-64
2021/11/11 07:11:20;;;;;;;;;;;0.60;99.90;;;;;;8430126;28;19912;-64
2021/11/11 07:15:20;;;;;;;;;;;0.60;99.90;;;;;;8430142;28;19915;-64
2021/11/11 07:19:21;;;;;;;;;;;0.80;99.90;;;;;;8430040;28;19908;-64
2021/11/11 07:23:23;;;;;;;;;;;0.90;99.90;;;;;;8429610;28;20329;-64
2021/11/11 07:27:23;;;;;;;;;;;1.00;99.90;;;;;;8411641;28;19904;-64
2021/11/11 07:31:25;;;;;;;;;;;1.00;99.90;;;;;;8429386;28;19910;-64
2021/11/11 07:35:26;;;;;;;;;;;1.30;99.90;;;;;;8429287;28;19990;-64
2021/11/11 07:39:27;;;;;;;;;;;1.50;99.90;;;;;;8428481;28;19927;-64
2021/11/11 07:43:27;;;;;;;;;;;1.50;99.90;;;;;;8429187;28;19908;-64
2021/11/11 07:47:28;;;;;;;;;;;1.50;99.90;;;;;;8428937;28;19908;-64
2021/11/11 07:51:29;;;;;;;;;;;1.60;99.90;;;;;;8428615;28;19912;-64
2021/11/11 07:55:30;;;;;;;;;;;1.60;99.90;;;;;;8410505;28;19904;-64
2021/11/11 07:59:30;;;;;;;;;;;1.80;99.90;;;;;;8427997;28;19912;-64
2021/11/11 08:03:31;;;;;;;;;;;2.00;99.90;;;;;;8428615;28;20261;-64
2021/11/11 08:07:32;;;;;;;;;;;2.20;99.90;;;;;;8428341;28;19904;-64
2021/11/11 08:11:32;;;;;;;;;;;2.10;99.90;;;;;;8428057;28;19904;-64
2021/11/11 08:15:33;;;;;;;;;;;2.10;99.90;;;;;;8428358;28;19911;-64
2021/11/11 08:19:34;;;;;;;;;;;1.90;99.90;;;;;;8427559;28;19915;-63
2021/11/11 08:23:37;;;;;;;;;;;2.10;99.90;;;;;;8427487;28;19911;-63
2021/11/11 08:27:39;;;;;;;;;;;2.10;99.90;;;;;;8409582;28;19910;-64
2021/11/11 08:31:39;;;;;;;;;;;2.20;99.90;;;;;;8427570;28;19954;-64
2021/11/11 08:35:40;;;;;;;;;;;2.40;99.90;;;;;;8409562;28;19930;-64
2021/11/11 08:39:40;;;;;;;;;;;2.90;99.90;;;;;;8427003;28;19943;-64
2021/11/11 08:43:41;;;;;;;;;;;3.10;99.90;;;;;;8427412;28;19904;-63
2021/11/11 08:47:42;;;;;;;;;;;3.30;99.90;;;;;;8426570;28;20348;-63
2021/11/11 08:51:43;;;;;;;;;;;3.40;99.90;;;;;;8426786;28;19916;-64
2021/11/11 08:55:43;;;;;;;;;;;3.50;99.90;;;;;;8427282;28;19912;-63
2021/11/11 08:59:44;;;;;;;;;;;3.50;99.90;;;;;;8385438;28;19916;-63
2021/11/11 09:03:44;;;;;;;;;;;3.70;99.90;;;;;;8393593;28;19912;-64
2021/11/11 09:07:45;;;;;;;;;;;3.90;99.90;;;;;;8393580;28;20327;-64
2021/11/11 09:11:46;;;;;;;;;;;4.10;99.90;;;;;;8393355;28;19957;-64
2021/11/11 09:15:47;;;;;;;;;;;4.30;99.90;;;;;;8393610;28;19940;-64
2021/11/11 09:19:48;;;;;;;;;;;4.70;99.90;;;;;;8393078;28;19924;-64
2021/11/11 09:23:50;;;;;;;;;;;4.90;99.90;;;;;;8392916;28;19905;-64
2021/11/11 09:27:51;;;;;;;;;;;5.10;99.90;;;;;;8393213;28;19915;-63
2021/11/11 09:31:51;;;;;;;;;;;5.20;99.90;;;;;;8392898;28;20283;-64
2021/11/11 09:35:53;;;;;;;;;;;5.40;99.90;;;;;;8393312;28;19905;-64
2021/11/11 09:43:56;;;;;;;;;;;6.40;99.90;;;;;;8422755;28;19931;-64
2021/11/11 09:47:57;;;;;;;;;;;6.80;99.90;;;;;;8426315;28;19977;-64
2021/11/11 09:51:58;;;;;;;;;;;7.10;99.90;;;;;;8426107;28;19908;-64
2021/11/11 10:00:18;;;;;;;;;;;7.80;99.90;;;;;;8427103;28;19919;-64
2021/11/11 10:04:18;;;;;;;;;;;7.90;99.90;;;;;;8432364;28;19904;-63
2021/11/11 10:08:32;;;;;;;;;;;7.80;99.90;;;;;;8432265;28;19950;-64
2021/11/11 10:12:33;;;;;;;;;;;8.00;99.90;;;;;;8432350;28;19904;-64
2021/11/11 10:16:45;;;;;;;;;;;8.30;99.90;;;;;;8432227;28;19904;-64
2021/11/11 10:20:45;;;;;;;;;;;9.80;99.90;;;;;;8431341;28;19908;-64
2021/11/11 10:24:52;;;;;;;;;;;12.70;99.90;;;;;;8431762;28;20010;-64
2021/11/11 10:28:52;;;;;;;;;;;14.60;99.90;;;;;;8396637;28;20382;-64
2021/11/11 10:32:58;;;;;;;;;;;15.70;99.90;;;;;;8397812;28;19905;-65
2021/11/11 10:36:59;;;;;;;;;;;16.70;99.90;;;;;;8397950;28;19944;-64
2021/11/11 10:40:59;;;;;;;;;;;17.20;99.90;;;;;;8397582;28;19919;-64
2021/11/11 10:45:01;;;;;;;;;;;17.60;99.90;;;;;;8397753;28;19905;-64
2021/11/11 10:49:18;;;;;;;;;;;17.60;99.90;;;;;;8379236;28;20368;-64
2021/11/11 10:53:20;;;;;;;;;;;18.00;99.90;;;;;;8412790;28;19952;-64
2021/11/11 10:57:30;;;;;;;;;;;18.60;99.90;;;;;;8405287;28;19905;-64
2021/11/11 11:01:30;;;;;;;;;;;18.80;99.90;;;;;;8430552;28;20003;-64
2021/11/11 11:05:46;;;;;;;;;;;19.30;98.00;;;;;;8430525;28;20271;-64
2021/11/11 11:10:01;;;;;;;;;;;17.80;99.90;;;;;;8411656;28;19915;-63
2021/11/11 11:14:11;;;;;;;;;;;17.10;99.90;;;;;;8426764;28;19957;-64
2021/11/11 11:18:12;;;;;;;;;;;17.20;99.90;;;;;;8429817;28;20413;-64
2021/11/11 11:22:24;;;;;;;;;;;16.90;99.90;;;;;;8429437;28;19938;-64
2021/11/11 11:26:26;;;;;;;;;;;17.70;99.40;;;;;;8421410;28;19915;-63
2021/11/11 11:30:41;;;;;;;;;;;16.80;99.90;;;;;;8427252;28;19947;-64
2021/11/11 11:34:43;;;;;;;;;;;16.80;99.90;;;;;;8429154;28;20530;-64
2021/11/11 11:38:51;;;;;;;;;;;16.90;99.90;;;;;;8410394;28;19981;-64
2021/11/11 11:42:54;;;;;;;;;;;17.70;98.80;;;;;;8428072;28;19919;-63
2021/11/11 11:47:10;;;;;;;;;;;17.00;99.90;;;;;;8418734;28;20256;-62
2021/11/11 11:51:12;;;;;;;;;;;18.60;97.00;;;;;;8426628;28;19915;-62
2021/11/11 11:55:17;;;;;;;;;;;18.80;96.80;;;;;;8424092;28;19918;-62
2021/11/11 11:59:20;;;;;;;;;;;19.90;94.20;;;;;;8417241;28;20025;-62
2021/11/11 12:03:46;;;;;;;;;;;20.90;93.30;;;;;;8417617;28;19935;-64
2021/11/11 12:08:29;;;;;;;;;;;22.70;88.40;;;;;;8411416;28;19957;-63
2021/11/11 12:16:56;;;;;;;;;;;22.40;82.00;;;;;;8420830;28;19934;-63
2021/11/11 12:30:05;;;;;;;;;;;22.10;78.80;;;;;;8426815;28;20026;-62
2021/11/11 12:38:43;;;;;;;;;;;21.00;83.70;;;;;;8425894;28;19908;-63
2021/11/11 12:42:52;;;;;;;;;;;21.40;82.80;;;;;;8418337;28;19912;-62
2021/11/11 12:46:54;;;;;;;;;;;23.10;77.70;;;;;;8409242;28;19904;-63
2021/11/11 12:51:02;;;;;;;;;;;23.10;76.50;;;;;;8404681;28;19953;-63
2021/11/11 12:55:14;;;;;;;;;;;22.50;78.40;;;;;;8418536;28;19947;-63
2021/11/11 12:59:15;;;;;;;;;;;23.40;76.30;;;;;;8404737;28;20006;-63
2021/11/11 13:03:16;;;;;;;;;;;25.90;70.90;;;;;;8413976;28;19919;-63
2021/11/11 13:07:21;;;;;;;;;;;25.50;67.30;;;;;;8423752;28;19916;-63
2021/11/11 13:11:32;;;;;;;;;;;26.40;63.80;;;;;;8423566;28;20363;-63
2021/11/11 13:15:41;;;;;;;;;;;26.50;61.70;;;;;;8404766;28;20288;-63
2021/11/11 13:19:48;;;;;;;;;;;25.80;62.50;;;;;;8424104;28;19908;-63
2021/11/11 13:24:08;;;;;;;;;;;26.10;60.60;;;;;;8397315;28;19966;-64
2021/11/11 14:03:50;;;;;;;;;;;16.00;92.30;;;;;;8371529;28;20379;-64
2021/11/11 15:17:43;;;;;;;;;;;10.90;99.90;;;;;;8430641;28;19915;-63
2021/11/11 16:00:46;;;;;;;;;;;8.30;99.90;;;;;;8359831;28;19920;-63
2021/11/11 16:22:28;;;;;;;;;;;7.60;99.90;;;;;;8357521;28;20001;-62
2021/11/11 16:26:28;;;;;;;;;;;7.40;99.90;;;;;;8335025;28;20403;-63
2021/11/11 16:30:30;;;;;;;;;;;7.10;99.90;;;;;;8360859;28;19928;-63
2021/11/11 16:34:30;;;;;;;;;;;6.90;99.90;;;;;;8359279;28;19966;-62
2021/11/11 16:38:31;;;;;;;;;;;6.70;99.90;;;;;;8360746;28;19909;-62
2021/11/11 16:42:31;;;;;;;;;;;6.60;99.90;;;;;;8360763;28;19917;-62
2021/11/11 16:46:33;;;;;;;;;;;6.50;99.90;;;;;;8360320;28;20338;-62
2021/11/11 16:50:33;;;;;;;;;;;6.60;99.90;;;;;;8360083;28;19905;-62
2021/11/11 16:54:34;;;;;;;;;;;6.40;99.90;;;;;;8360413;28;20426;-63
2021/11/11 16:58:34;;;;;;;;;;;6.20;99.90;;;;;;8357794;28;20053;-63
2021/11/11 17:02:35;;;;;;;;;;;6.00;99.90;;;;;;8352810;28;19913;-62
2021/11/11 17:06:35;;;;;;;;;;;5.80;99.90;;;;;;8349046;28;19909;-62
2021/11/11 17:10:36;;;;;;;;;;;5.90;99.90;;;;;;8344219;28;19912;-62
2021/11/11 17:14:40;;;;;;;;;;;5.90;99.90;;;;;;8351722;28;19909;-63
2021/11/11 17:18:41;;;;;;;;;;;5.70;99.90;;;;;;8340389;28;19904;-63
2021/11/11 17:22:48;;;;;;;;;;;5.70;99.90;;;;;;8357844;28;20304;-63
2021/11/11 17:27:19;;;;;;;;;;;5.50;99.90;;;;;;8354906;28;19936;-63
2021/11/11 17:31:18;;;;;;;;;;;5.30;99.90;;;;;;8358001;28;19951;-63
2021/11/11 17:35:19;;;;;;;;;;;5.40;99.90;;;;;;8356949;28;19909;-63
2021/11/11 17:39:19;;;;;;;;;;;5.20;99.90;;;;;;8356900;28;19920;-63
2021/11/11 17:43:21;;;;;;;;;;;5.10;99.90;;;;;;8339523;28;20228;-63
2021/11/11 17:47:32;;;;;;;;;;;4.90;99.90;;;;;;8339470;28;19908;-63
2021/11/11 17:55:54;;;;;;;;;;;4.70;99.90;;;;;;8359134;28;19905;-63
2021/11/11 17:59:55;;;;;;;;;;;4.90;99.90;;;;;;8358879;28;19908;-62
2021/11/11 18:03:56;;;;;;;;;;;5.20;99.90;;;;;;8358365;28;19905;-63
2021/11/11 18:08:16;;;;;;;;;;;5.00;99.90;;;;;;8340954;28;20373;-62
2021/11/11 18:12:23;;;;;;;;;;;5.10;99.90;;;;;;8358459;28;19915;-63
2021/11/11 18:16:26;;;;;;;;;;;4.80;99.90;;;;;;8359017;28;19911;-62
2021/11/11 18:20:27;;;;;;;;;;;4.90;99.90;;;;;;8358517;28;19912;-62
2021/11/11 18:24:28;;;;;;;;;;;4.80;99.90;;;;;;8363651;28;19912;-62
2021/11/11 18:28:38;;;;;;;;;;;4.60;99.90;;;;;;8359181;28;19912;-62
2021/11/11 18:32:41;;;;;;;;;;;4.30;99.90;;;;;;8355647;28;19909;-63
2021/11/11 18:36:44;;;;;;;;;;;4.20;99.90;;;;;;8364010;28;19916;-63
2021/11/11 18:40:45;;;;;;;;;;;4.30;99.90;;;;;;8362307;28;19912;-63
2021/11/11 18:44:47;;;;;;;;;;;4.10;99.90;;;;;;8360571;28;20461;-62
2021/11/11 18:48:48;;;;;;;;;;;4.00;99.90;;;;;;8359120;28;19955;-63
2021/11/11 18:52:48;;;;;;;;;;;3.80;99.90;;;;;;8333691;28;19917;-63
2021/11/11 18:56:49;;;;;;;;;;;4.00;99.90;;;;;;8315681;28;19920;-63
2021/11/11 19:00:50;;;;;;;;;;;4.00;99.90;;;;;;8359929;28;19908;-63
2021/11/11 19:04:56;;;;;;;;;;;3.70;99.90;;;;;;8359257;28;19938;-63
2021/11/11 19:13:07;;;;;;;;;;;3.70;99.90;;;;;;8359733;28;19916;-63
2021/11/11 19:21:14;;;;;;;;;;;3.50;99.90;;;;;;8359305;28;19913;-63
2021/11/11 19:25:15;;;;;;;;;;;3.40;99.90;;;;;;8358833;28;20280;-63
2021/11/11 19:29:16;;;;;;;;;;;3.20;99.90;;;;;;8358979;28;19915;-63
2021/11/11 19:33:18;;;;;;;;;;;3.20;99.90;;;;;;8358292;28;20293;-63
2021/11/11 19:37:36;;;;;;;;;;;3.30;99.90;;;;;;8338828;28;19912;-62
2021/11/11 19:55:06;;;;;;;;;;;2.90;99.90;;;;;;8358892;28;20673;-63
2021/11/11 19:59:30;;;;;;;;;;;2.80;99.90;;;;;;8358646;28;19908;-63
2021/11/11 20:07:40;;;;;;;;;;;3.10;99.90;;;;;;8358976;28;19905;-62
2021/11/11 20:33:06;;;;;;;;;;;3.20;99.90;;;;;;8357404;28;19916;-63
2021/11/11 20:49:53;;;;;;;;;;;2.50;99.90;;;;;;8354591;28;20584;-62
2021/11/11 20:59:06;;;;;;;;;;;2.50;99.90;;;;;;8356153;28;20353;-62
2021/11/11 21:02:36;;;;;;;;;;;2.40;99.90;;;;;;8338016;28;19966;-63
2021/11/11 21:06:49;;;;;;;;;;;2.40;99.90;;;;;;8355184;28;20269;-63
2021/11/11 21:16:07;;;;;;;;;;;2.10;99.90;;;;;;8330720;28;19915;-63
2021/11/11 21:19:49;;;;;;;;;;;2.20;99.90;;;;;;8346318;28;19955;-63
2021/11/11 21:23:50;;;;;;;;;;;2.20;99.90;;;;;;8337175;28;19967;-63
2021/11/11 21:27:52;;;;;;;;;;;2.20;99.90;;;;;;8355552;28;20331;-63
2021/11/11 21:31:53;;;;;;;;;;;2.20;99.90;;;;;;8337179;28;19913;-63
2021/11/11 21:36:09;;;;;;;;;;;2.30;99.90;;;;;;8354277;28;20003;-63
2021/11/11 21:40:15;;;;;;;;;;;2.10;99.90;;;;;;8355793;28;19913;-63
2021/11/11 21:44:20;;;;;;;;;;;2.10;99.90;;;;;;8371989;22;20066;-62
2021/11/11 21:48:20;;;;;;;;;;;2.20;99.90;;;;;;8354042;28;19958;-61
2021/11/11 21:52:21;;;;;;;;;;;2.00;99.90;;;;;;8336505;28;19908;-62
2021/11/11 22:21:57;;;;;;;;;;;1.70;99.90;;;;;;8362153;28;19923;-61
2021/11/11 22:26:03;;;;;;;;;;;1.80;99.90;;;;;;8362224;28;19939;-61
2021/11/11 22:34:17;;;;;;;;;;;1.50;99.90;;;;;;8361497;28;20622;-61
2021/11/11 22:38:17;;;;;;;;;;;1.70;99.90;;;;;;8361320;28;19904;-62
2021/11/11 22:42:18;;;;;;;;;;;1.60;99.90;;;;;;8343165;28;19921;-61
2021/11/11 22:46:18;;;;;;;;;;;1.60;99.90;;;;;;8351331;28;19908;-61
2021/11/11 22:50:22;;;;;;;;;;;1.50;99.90;;;;;;8328074;28;20357;-62
2021/11/11 22:54:34;;;;;;;;;;;1.60;99.90;;;;;;8353977;28;19920;-61
2021/11/11 22:58:51;;;;;;;;;;;1.50;99.90;;;;;;8355084;28;20000;-62
2021/11/11 23:03:00;;;;;;;;;;;1.50;99.90;;;;;;8360482;28;19967;-61
2021/11/11 23:11:45;;;;;;;;;;;1.30;99.90;;;;;;8322028;28;19962;-61
2021/11/11 23:24:19;;;;;;;;;;;1.20;99.90;;;;;;8328896;28;19909;-61
2021/11/11 23:32:50;;;;;;;;;;;1.20;99.90;;;;;;8327157;28;19971;-62
2021/11/11 23:36:51;;;;;;;;;;;1.20;99.90;;;;;;8327238;28;19909;-61
2021/11/11 23:40:51;;;;;;;;;;;1.10;99.90;;;;;;8308705;28;19959;-62
2021/11/11 23:44:52;;;;;;;;;;;1.20;99.90;;;;;;8326575;28;19975;-61
2021/11/11 23:48:57;;;;;;;;;;;1.50;99.90;;;;;;8357859;28;19928;-61
